Time;durP1;ratioP1;P1;durP2;ratioP2;P2;SDS_P1;SDS_P2;PMS_P1;PMS_P2;Temp;Humidity;BMP_temperature;BMP_pressure;BME280_temperature;BME280_humidity;BME280_pressure;Samples;Min_cycle;Max_cycle;Signal;HPM_P1;HPM_P2
2023/06/26 00:02:13;;;;;;;15.95;12.45;;;;;;;-147.65;100.00;57646.63;10422673;28;20489;-78
2023/06/26 00:07:14;;;;;;;17.17;13.70;;;;;;;-147.65;100.00;57646.63;10406047;28;20113;-78
2023/06/26 00:12:14;;;;;;;23.88;13.85;;;;;;;-147.65;100.00;57646.63;10408013;28;20619;-78
2023/06/26 00:17:15;;;;;;;16.85;12.63;;;;;;;-147.65;100.00;57646.63;10423381;28;20128;-78
2023/06/26 00:22:15;;;;;;;15.30;12.00;;;;;;;-147.65;100.00;57646.63;10401478;28;20076;-78
2023/06/26 00:27:16;;;;;;;17.25;13.07;;;;;;;-147.65;100.00;57646.63;10403332;28;20378;-79
2023/06/26 00:32:16;;;;;;;15.98;11.95;;;;;;;-147.65;100.00;57646.63;10404807;28;20478;-78
2023/06/26 00:37:17;;;;;;;18.38;14.38;;;;;;;-147.65;100.00;57646.63;10402939;28;20098;-77
2023/06/26 00:42:17;;;;;;;14.98;13.48;;;;;;;-147.65;100.00;57646.63;10407307;28;20041;-78
2023/06/26 00:47:18;;;;;;;20.92;14.55;;;;;;;-147.65;100.00;57646.63;10396439;28;20480;-78
2023/06/26 00:52:19;;;;;;;17.27;14.00;;;;;;;-147.65;100.00;57646.63;10439035;28;20426;-78
2023/06/26 00:57:19;;;;;;;16.85;14.32;;;;;;;-147.65;100.00;57646.63;10400857;28;20497;-78
2023/06/26 01:02:20;;;;;;;15.88;13.88;;;;;;;-147.65;100.00;57646.63;10390309;28;20485;-77
2023/06/26 01:07:20;;;;;;;17.88;14.48;;;;;;;-147.65;100.00;57646.63;10443683;28;20041;-78
2023/06/26 01:12:21;;;;;;;16.92;13.65;;;;;;;-147.65;100.00;57646.63;10425091;28;20484;-78
2023/06/26 01:17:23;;;;;;;15.43;12.95;;;;;;;-147.65;100.00;57646.63;10397323;28;20132;-78
2023/06/26 01:22:26;;;;;;;18.95;13.07;;;;;;;-147.65;100.00;57646.63;10405180;28;20536;-77
2023/06/26 01:27:27;;;;;;;14.98;13.38;;;;;;;-147.65;100.00;57646.63;10441521;28;20060;-78
2023/06/26 01:32:28;;;;;;;13.90;12.50;;;;;;;-147.65;100.00;57646.63;10418847;28;20422;-78
2023/06/26 01:37:28;;;;;;;15.88;11.85;;;;;;;-147.65;100.00;57646.63;10382504;28;20125;-78
2023/06/26 01:42:29;;;;;;;19.23;12.90;;;;;;;-147.65;100.00;57646.63;10433673;28;20151;-80
2023/06/26 01:47:29;;;;;;;12.00;10.02;;;;;;;-147.65;100.00;57646.63;10392428;28;20500;-80
2023/06/26 01:52:43;;;;;;;11.38;10.07;;;;;;;-147.65;100.00;57646.63;10449324;28;20040;-80
2023/06/26 01:57:44;;;;;;;14.88;11.82;;;;;;;-147.65;100.00;57646.63;10401295;28;20116;-80
2023/06/26 02:02:45;;;;;;;14.13;11.68;;;;;;;-147.65;100.00;57646.63;10424360;28;20116;-80
2023/06/26 02:07:45;;;;;;;13.93;9.35;;;;;;;-147.65;100.00;57646.63;10440198;28;20473;-81
2023/06/26 02:12:46;;;;;;;11.15;9.35;;;;;;;-147.65;100.00;57646.63;10439455;28;20103;-80
2023/06/26 02:17:48;;;;;;;12.05;9.40;;;;;;;-147.65;100.00;57646.63;10406256;28;20446;-80
2023/06/26 02:22:48;;;;;;;10.52;9.02;;;;;;;-147.65;100.00;57646.63;10439107;28;20098;-80
2023/06/26 02:27:49;;;;;;;14.45;10.45;;;;;;;-147.65;100.00;57646.63;10389220;28;20089;-80
2023/06/26 02:32:49;;;;;;;13.52;10.05;;;;;;;-147.65;100.00;57646.63;10377424;28;20132;-80
2023/06/26 02:37:50;;;;;;;12.85;8.55;;;;;;;-147.65;100.00;57646.63;10409207;28;20047;-79
2023/06/26 02:42:50;;;;;;;10.63;7.82;;;;;;;-147.65;100.00;57646.63;10415234;28;20514;-79
2023/06/26 02:47:51;;;;;;;10.18;8.05;;;;;;;-147.65;100.00;57646.63;10447144;28;20081;-79
2023/06/26 02:52:52;;;;;;;9.60;6.68;;;;;;;-147.65;100.00;57646.63;10457119;28;20116;-80
2023/06/26 02:57:52;;;;;;;9.50;7.10;;;;;;;-147.65;100.00;57646.63;10389005;28;20045;-80
2023/06/26 03:02:53;;;;;;;12.35;6.65;;;;;;;-147.65;100.00;57646.63;10425790;28;20055;-80
2023/06/26 03:07:53;;;;;;;12.00;6.10;;;;;;;-147.65;100.00;57646.63;10406564;28;20071;-80
2023/06/26 03:12:54;;;;;;;8.48;6.05;;;;;;;-147.65;100.00;57646.63;10412278;28;20124;-80
2023/06/26 03:17:55;;;;;;;6.82;4.32;;;;;;;-147.65;100.00;57646.63;10400527;28;20036;-80
2023/06/26 03:22:55;;;;;;;11.25;5.78;;;;;;;-147.65;100.00;57646.63;10393410;28;20045;-79
2023/06/26 03:27:56;;;;;;;10.73;5.50;;;;;;;-147.65;100.00;57646.63;10462437;28;20041;-79
2023/06/26 03:32:56;;;;;;;9.55;5.97;;;;;;;-147.65;100.00;57646.63;10442407;28;20037;-80
2023/06/26 03:37:57;;;;;;;9.77;5.97;;;;;;;-147.65;100.00;57646.63;10420457;28;20485;-79
2023/06/26 03:42:58;;;;;;;12.98;6.15;;;;;;;-147.65;100.00;57646.63;10473232;28;20037;-79
2023/06/26 03:47:58;;;;;;;12.93;6.85;;;;;;;-147.65;100.00;57646.63;10443768;28;20045;-80
2023/06/26 03:52:59;;;;;;;9.48;5.55;;;;;;;-147.65;100.00;57646.63;10456629;28;20075;-77
2023/06/26 03:58:03;;;;;;;15.77;9.18;;;;;;;-147.65;100.00;57646.63;10404239;28;20443;-77
2023/06/26 04:03:04;;;;;;;12.32;7.28;;;;;;;-147.65;100.00;57646.63;10436452;28;20120;-77
2023/06/26 04:08:04;;;;;;;8.98;4.82;;;;;;;-147.65;100.00;57646.63;10410762;28;20042;-77
2023/06/26 04:13:05;;;;;;;7.45;5.05;;;;;;;-147.65;100.00;57646.63;10400644;28;20084;-77
2023/06/26 04:18:05;;;;;;;8.73;5.18;;;;;;;-147.65;100.00;57646.63;10406519;28;20126;-77
2023/06/26 04:23:06;;;;;;;7.55;4.70;;;;;;;-147.65;100.00;57646.63;10389540;28;20154;-76
2023/06/26 04:28:06;;;;;;;9.35;5.03;;;;;;;-147.65;100.00;57646.63;10360816;28;20048;-77
2023/06/26 04:33:07;;;;;;;12.45;5.38;;;;;;;-147.65;100.00;57646.63;10434823;28;20033;-76
2023/06/26 04:38:09;;;;;;;9.85;6.25;;;;;;;-147.65;100.00;57646.63;10441661;28;20053;-77
2023/06/26 04:43:10;;;;;;;15.80;8.30;;;;;;;-147.65;100.00;57646.63;10429678;28;20493;-77
2023/06/26 04:48:10;;;;;;;8.90;6.10;;;;;;;-147.65;100.00;57646.63;10401707;28;20124;-77
2023/06/26 04:53:11;;;;;;;12.60;5.88;;;;;;;-147.65;100.00;57646.63;10469455;28;20048;-76
2023/06/26 04:58:11;;;;;;;9.88;4.63;;;;;;;-147.65;100.00;57646.63;10407326;28;20123;-78
2023/06/26 05:03:12;;;;;;;9.45;5.38;;;;;;;-147.65;100.00;57646.63;10408198;28;20508;-80
2023/06/26 05:08:22;;;;;;;9.43;5.05;;;;;;;-147.65;100.00;57646.63;10353652;28;20045;-79
2023/06/26 05:13:24;;;;;;;10.45;6.00;;;;;;;-147.65;100.00;57646.63;10383639;28;20042;-78
2023/06/26 05:18:24;;;;;;;14.27;6.70;;;;;;;-147.65;100.00;57646.63;10415921;28;20037;-77
2023/06/26 05:23:26;;;;;;;12.02;8.30;;;;;;;-147.65;100.00;57646.63;10403425;28;20069;-83
2023/06/26 05:28:27;;;;;;;9.32;4.70;;;;;;;-147.65;100.00;57646.63;10402420;28;20493;-79
2023/06/26 05:33:28;;;;;;;10.45;5.45;;;;;;;-147.65;100.00;57646.63;10370826;28;20516;-80
2023/06/26 05:38:28;;;;;;;9.10;5.83;;;;;;;-147.65;100.00;57646.63;10343502;28;20045;-79
2023/06/26 05:43:29;;;;;;;31.23;12.97;;;;;;;-147.65;100.00;57646.63;10391874;28;20050;-79
2023/06/26 05:48:29;;;;;;;12.10;5.63;;;;;;;-147.65;100.00;57646.63;10396016;28;20562;-80
2023/06/26 05:53:30;;;;;;;24.83;7.67;;;;;;;-147.65;100.00;57646.63;10399281;28;20059;-79
2023/06/26 05:58:31;;;;;;;13.97;5.13;;;;;;;-147.65;100.00;57646.63;10460148;28;20638;-78
2023/06/26 06:03:31;;;;;;;14.10;5.53;;;;;;;-147.65;100.00;57646.63;10449388;28;20038;-78
2023/06/26 06:08:32;;;;;;;10.70;5.97;;;;;;;-147.65;100.00;57646.63;10368031;28;20123;-78
2023/06/26 06:13:33;;;;;;;14.20;5.80;;;;;;;-147.65;100.00;57646.63;10412660;28;20399;-78
2023/06/26 06:18:33;;;;;;;13.63;5.03;;;;;;;-147.65;100.00;57646.63;10401551;28;20090;-81
2023/06/26 06:23:34;;;;;;;10.77;5.83;;;;;;;-147.65;100.00;57646.63;10401783;28;20052;-79
2023/06/26 06:28:34;;;;;;;12.30;6.03;;;;;;;-147.65;100.00;57646.63;10383813;28;20049;-78
2023/06/26 06:33:35;;;;;;;14.13;6.63;;;;;;;-147.65;100.00;57646.63;10405624;28;20030;-80
2023/06/26 06:38:35;;;;;;;12.23;5.60;;;;;;;-147.65;100.00;57646.63;10407672;28;20475;-80
2023/06/26 06:43:36;;;;;;;17.07;6.07;;;;;;;-147.65;100.00;57646.63;10406729;28;20172;-83
2023/06/26 06:48:36;;;;;;;15.07;5.30;;;;;;;-147.65;100.00;57646.63;10406627;28;20034;-80
2023/06/26 06:53:37;;;;;;;12.60;5.87;;;;;;;-147.65;100.00;57646.63;10432279;28;20041;-88
2023/06/26 06:58:37;;;;;;;9.40;4.80;;;;;;;-147.65;100.00;57646.63;10426352;28;20046;-80
2023/06/26 07:03:38;;;;;;;24.90;5.03;;;;;;;-147.65;100.00;57646.63;10395316;28;20136;-82
2023/06/26 07:08:38;;;;;;;10.87;4.50;;;;;;;-147.65;100.00;57646.63;10404351;28;20047;-80
2023/06/26 07:13:39;;;;;;;5.73;3.37;;;;;;;-147.65;100.00;57646.63;10335455;28;20446;-81
2023/06/26 07:18:39;;;;;;;6.93;3.80;;;;;;;-147.65;100.00;57646.63;10359410;28;20041;-80
2023/06/26 07:23:40;;;;;;;8.10;4.67;;;;;;;-147.65;100.00;57646.63;10399909;28;20148;-80
2023/06/26 07:28:41;;;;;;;18.00;5.37;;;;;;;-147.65;100.00;57646.63;10404607;28;20043;-80
2023/06/26 07:33:41;;;;;;;11.57;4.80;;;;;;;-147.65;100.00;57646.63;10399595;28;20053;-78
2023/06/26 07:38:42;;;;;;;14.53;4.97;;;;;;;-147.65;100.00;57646.63;10428849;28;20043;-78
2023/06/26 07:43:43;;;;;;;16.97;4.77;;;;;;;-147.65;100.00;57646.63;10440081;28;20160;-80
2023/06/26 07:48:43;;;;;;;11.00;3.43;;;;;;;-147.65;100.00;57646.63;10379985;28;20132;-79
2023/06/26 07:53:44;;;;;;;16.73;4.63;;;;;;;-147.65;100.00;57646.63;10357700;28;20041;-81
2023/06/26 07:58:44;;;;;;;30.63;12.87;;;;;;;-147.65;100.00;57646.63;10394624;28;20068;-78
2023/06/26 08:03:55;;;;;;;6.73;2.37;;;;;;;-147.65;100.00;57646.63;10366303;28;20053;-78
2023/06/26 08:08:56;;;;;;;10.02;3.05;;;;;;;-147.65;100.00;57646.63;10387485;28;20049;-77
2023/06/26 08:13:57;;;;;;;10.20;4.50;;;;;;;-147.65;100.00;57646.63;10403988;28;20464;-79
2023/06/26 08:18:57;;;;;;;18.30;4.67;;;;;;;-147.65;100.00;57646.63;10420245;28;20043;-77
2023/06/26 08:23:58;;;;;;;14.27;4.33;;;;;;;-147.65;100.00;57646.63;10394721;28;20042;-76
2023/06/26 08:28:58;;;;;;;10.03;3.17;;;;;;;-147.65;100.00;57646.63;10383204;28;20044;-78
2023/06/26 08:33:59;;;;;;;11.63;3.43;;;;;;;-147.65;100.00;57646.63;10385350;28;20050;-78
2023/06/26 08:39:00;;;;;;;6.30;3.67;;;;;;;-147.65;100.00;57646.63;10359368;28;20055;-77
2023/06/26 08:44:00;;;;;;;8.43;3.00;;;;;;;-147.65;100.00;57646.63;10369641;28;20033;-78
2023/06/26 08:49:04;;;;;;;8.87;2.93;;;;;;;-147.65;100.00;57646.63;10377274;28;20040;-77
2023/06/26 08:54:07;;;;;;;9.43;3.38;;;;;;;-147.65;100.00;57646.63;10437865;28;20098;-77
2023/06/26 08:59:08;;;;;;;6.78;4.03;;;;;;;-147.65;100.00;57646.63;10445711;28;20124;-77
2023/06/26 09:04:08;;;;;;;4.00;2.20;;;;;;;-147.65;100.00;57646.63;10408151;28;20135;-83
2023/06/26 09:09:10;;;;;;;5.47;2.00;;;;;;;-147.65;100.00;57646.63;10437961;28;20065;-83
2023/06/26 09:14:10;;;;;;;3.33;1.83;;;;;;;-147.65;100.00;57646.63;10441433;28;20473;-83
2023/06/26 09:19:11;;;;;;;7.90;2.40;;;;;;;-147.65;100.00;57646.63;10402546;28;20072;-82
2023/06/26 09:24:12;;;;;;;7.97;2.30;;;;;;;-147.65;100.00;57646.63;10399347;28;20075;-82
2023/06/26 09:29:13;;;;;;;3.53;1.37;;;;;;;-147.65;100.00;57646.63;10414322;28;20354;-81
2023/06/26 09:34:13;;;;;;;6.43;3.00;;;;;;;-147.65;100.00;57646.63;10396339;28;20073;-80
2023/06/26 09:39:14;;;;;;;3.73;1.47;;;;;;;-147.65;100.00;57646.63;10379745;28;20490;-81
2023/06/26 09:44:15;;;;;;;4.43;1.40;;;;;;;-147.65;100.00;57646.63;10383611;28;20057;-81
2023/06/26 09:49:15;;;;;;;4.13;1.33;;;;;;;-147.65;100.00;57646.63;10383070;28;20045;-80
2023/06/26 09:54:16;;;;;;;5.47;2.47;;;;;;;-147.65;100.00;57646.63;10400951;28;20047;-81
2023/06/26 09:59:17;;;;;;;5.22;1.88;;;;;;;-147.65;100.00;57646.63;10383508;28;20116;-79
2023/06/26 10:04:17;;;;;;;7.77;2.43;;;;;;;-147.65;100.00;57646.63;10383250;28;20045;-81
2023/06/26 10:09:19;;;;;;;7.60;1.73;;;;;;;-147.65;100.00;57646.63;10401087;28;20048;-88
2023/06/26 10:14:20;;;;;;;;;;;;;;;-147.65;100.00;57646.63;10383181;28;20355;-86
2023/06/26 10:19:24;;;;;;;4.60;2.03;;;;;;;-147.65;100.00;57646.63;10399247;28;19921;-86
2023/06/26 10:24:25;;;;;;;6.32;2.08;;;;;;;-147.65;100.00;57646.63;10399790;28;20473;-87
2023/06/26 10:29:25;;;;;;;4.17;1.80;;;;;;;-147.65;100.00;57646.63;10399953;28;20026;-86
2023/06/26 10:34:26;;;;;;;6.40;2.00;;;;;;;-147.65;100.00;57646.63;10398970;28;20385;-85
2023/06/26 10:39:26;;;;;;;7.03;1.50;;;;;;;-147.65;100.00;57646.63;10398688;28;20559;-85
2023/06/26 10:44:27;;;;;;;10.03;1.90;;;;;;;-147.65;100.00;57646.63;10383231;28;20040;-84
2023/06/26 10:49:31;;;;;;;4.10;1.87;;;;;;;-147.65;100.00;57646.63;10381519;28;20037;-88
2023/06/26 10:54:32;;;;;;;5.47;2.42;;;;;;;-147.65;100.00;57646.63;10404510;28;20041;-86
2023/06/26 10:59:33;;;;;;;5.90;1.42;;;;;;;-147.65;100.00;57646.63;10405809;28;20072;-88
2023/06/26 11:04:44;;;;;;;5.77;1.47;;;;;;;-147.65;100.00;57646.63;10389335;28;20037;-83
2023/06/26 11:10:00;;;;;;;5.47;1.38;;;;;;;-147.65;100.00;57646.63;10407444;28;20042;-87
2023/06/26 11:15:01;;;;;;;10.98;2.17;;;;;;;-147.65;100.00;57646.63;10372748;28;20061;-84
2023/06/26 11:20:02;;;;;;;8.37;1.33;;;;;;;-147.65;100.00;57646.63;10404973;28;20038;-86
2023/06/26 11:25:03;;;;;;;5.60;1.63;;;;;;;-147.65;100.00;57646.63;10407203;28;20041;-84
2023/06/26 11:30:07;;;;;;;2.28;1.35;;;;;;;-147.65;100.00;57646.63;10406542;28;20037;-86
2023/06/26 11:35:09;;;;;;;3.40;1.10;;;;;;;-147.65;100.00;57646.63;10404451;28;20466;-89
2023/06/26 11:40:19;;;;;;;;;;;;;;;-147.65;100.00;57646.63;10392395;28;20042;-86
2023/06/26 11:45:20;;;;;;;7.72;2.17;;;;;;;-147.65;100.00;57646.63;10365138;28;20013;-83
2023/06/26 11:50:20;;;;;;;3.17;1.20;;;;;;;-147.65;100.00;57646.63;10370100;28;20041;-87
2023/06/26 11:55:21;;;;;;;3.73;1.10;;;;;;;-147.65;100.00;57646.63;10440798;28;20068;-88
2023/06/26 12:00:22;;;;;;;4.63;1.57;;;;;;;-147.65;100.00;57646.63;10428409;28;20040;-88
2023/06/26 12:05:22;;;;;;;9.67;1.57;;;;;;;-147.65;100.00;57646.63;10405653;28;20038;-87
2023/06/26 12:10:23;;;;;;;4.10;1.83;;;;;;;-147.65;100.00;57646.63;10403341;28;20412;-85
2023/06/26 12:15:23;;;;;;;2.20;1.20;;;;;;;-147.65;100.00;57646.63;10424867;28;20132;-86
2023/06/26 12:20:25;;;;;;;4.10;1.90;;;;;;;-147.65;100.00;57646.63;10418210;28;20461;-85
2023/06/26 12:25:26;;;;;;;5.00;1.42;;;;;;;-147.65;100.00;57646.63;10440789;28;20072;-88
2023/06/26 12:30:26;;;;;;;6.77;1.80;;;;;;;-147.65;100.00;57646.63;10441692;28;20116;-83
2023/06/26 12:35:27;;;;;;;4.00;1.37;;;;;;;-147.65;100.00;57646.63;10444646;28;20053;-82
2023/06/26 12:40:27;;;;;;;3.50;1.47;;;;;;;-147.65;100.00;57646.63;10442829;28;20094;-84
2023/06/26 12:45:28;;;;;;;3.50;1.10;;;;;;;-147.65;100.00;57646.63;10442616;28;20040;-83
2023/06/26 12:50:28;;;;;;;4.43;0.93;;;;;;;-147.65;100.00;57646.63;10442899;28;20045;-83
2023/06/26 12:55:29;;;;;;;5.53;1.33;;;;;;;-147.65;100.00;57646.63;10442931;28;20476;-84
2023/06/26 13:00:31;;;;;;;2.50;0.90;;;;;;;-147.65;100.00;57646.63;10444156;28;20033;-84
2023/06/26 13:05:32;;;;;;;4.55;1.58;;;;;;;-147.65;100.00;57646.63;10442185;28;20033;-83
2023/06/26 13:10:33;;;;;;;6.03;1.17;;;;;;;-147.65;100.00;57646.63;10444661;28;20043;-83
2023/06/26 13:15:33;;;;;;;3.10;1.30;;;;;;;-147.65;100.00;57646.63;10437502;28;20809;-81
2023/06/26 13:20:34;;;;;;;4.63;1.30;;;;;;;-147.65;100.00;57646.63;10443285;28;20037;-83
2023/06/26 13:25:34;;;;;;;5.83;1.80;;;;;;;-147.65;100.00;57646.63;10441686;28;20048;-84
2023/06/26 13:30:35;;;;;;;7.80;2.20;;;;;;;-147.65;100.00;57646.63;10441221;28;20029;-83
2023/06/26 13:35:35;;;;;;;5.53;1.37;;;;;;;-147.65;100.00;57646.63;10474979;28;20116;-83
2023/06/26 13:40:36;;;;;;;6.07;1.63;;;;;;;-147.65;100.00;57646.63;10441384;28;20045;-83
2023/06/26 13:45:36;;;;;;;4.80;1.90;;;;;;;-147.65;100.00;57646.63;10425750;28;20082;-82
2023/06/26 13:50:37;;;;;;;5.80;1.63;;;;;;;-147.65;100.00;57646.63;10442832;28;20182;-82
2023/06/26 13:55:37;;;;;;;5.03;1.37;;;;;;;-147.65;100.00;57646.63;10441917;28;20039;-82
2023/06/26 14:00:38;;;;;;;7.57;1.47;;;;;;;-147.65;100.00;57646.63;10443606;28;20497;-81
2023/06/26 14:05:39;;;;;;;8.90;2.17;;;;;;;-147.65;100.00;57646.63;10441440;28;20510;-82
2023/06/26 14:10:39;;;;;;;2.07;1.20;;;;;;;-147.65;100.00;57646.63;10442033;28;20044;-86
2023/06/26 14:15:40;;;;;;;6.30;2.10;;;;;;;-147.65;100.00;57646.63;10440722;28;20033;-85
2023/06/26 14:20:40;;;;;;;4.60;1.33;;;;;;;-147.65;100.00;57646.63;10440863;28;20075;-86
2023/06/26 14:25:41;;;;;;;4.03;1.40;;;;;;;-147.65;100.00;57646.63;10459897;28;20127;-86
2023/06/26 14:30:41;;;;;;;3.50;1.63;;;;;;;-147.65;100.00;57646.63;10446233;28;20033;-85
2023/06/26 14:35:42;;;;;;;7.37;1.70;;;;;;;-147.65;100.00;57646.63;10420636;28;20115;-84
2023/06/26 14:40:42;;;;;;;3.97;1.50;;;;;;;-147.65;100.00;57646.63;10406640;28;20040;-90
2023/06/26 14:45:43;;;;;;;6.33;1.60;;;;;;;-147.65;100.00;57646.63;10401674;28;20381;-90
2023/06/26 14:50:43;;;;;;;4.33;1.53;;;;;;;-147.65;100.00;57646.63;10377020;28;20445;-83
2023/06/26 14:55:44;;;;;;;5.90;1.50;;;;;;;-147.65;100.00;57646.63;10352927;28;20070;-83
2023/06/26 15:00:45;;;;;;;1.97;1.13;;;;;;;-147.65;100.00;57646.63;10363528;28;20045;-82
2023/06/26 15:05:45;;;;;;;4.03;1.53;;;;;;;-147.65;100.00;57646.63;10366221;28;20073;-82
2023/06/26 15:10:46;;;;;;;4.77;1.70;;;;;;;-147.65;100.00;57646.63;10427972;28;20088;-83
2023/06/26 15:15:46;;;;;;;4.80;1.40;;;;;;;-147.65;100.00;57646.63;10429834;28;20073;-82
2023/06/26 15:20:47;;;;;;;6.27;1.27;;;;;;;-147.65;100.00;57646.63;10429023;28;20041;-82
2023/06/26 15:25:47;;;;;;;5.73;1.10;;;;;;;-147.65;100.00;57646.63;10479911;28;20037;-85
2023/06/26 15:30:49;;;;;;;11.97;1.63;;;;;;;-147.65;100.00;57646.63;10394297;28;20041;-81
2023/06/26 15:35:49;;;;;;;3.42;1.33;;;;;;;-147.65;100.00;57646.63;10376137;28;20045;-81
2023/06/26 15:40:50;;;;;;;4.33;1.00;;;;;;;-147.65;100.00;57646.63;10406159;28;21139;-83
2023/06/26 15:45:51;;;;;;;5.43;2.10;;;;;;;-147.65;100.00;57646.63;10373389;28;20036;-86
2023/06/26 15:50:51;;;;;;;5.77;1.57;;;;;;;-147.65;100.00;57646.63;10377699;28;20033;-86
2023/06/26 15:55:52;;;;;;;9.47;1.77;;;;;;;-147.65;100.00;57646.63;10367003;28;20120;-85
2023/06/26 16:00:52;;;;;;;2.87;1.57;;;;;;;-147.65;100.00;57646.63;10343165;28;20042;-86
2023/06/26 16:05:53;;;;;;;2.77;1.27;;;;;;;-147.65;100.00;57646.63;10343058;28;20063;-86
2023/06/26 16:10:54;;;;;;;4.97;1.77;;;;;;;-147.65;100.00;57646.63;10423733;28;20136;-85
2023/06/26 16:15:54;;;;;;;4.63;1.53;;;;;;;-147.65;100.00;57646.63;10444403;28;20056;-87
2023/06/26 16:20:55;;;;;;;6.97;1.87;;;;;;;-147.65;100.00;57646.63;10408986;28;20043;-88
2023/06/26 16:25:55;;;;;;;6.13;1.17;;;;;;;-147.65;100.00;57646.63;10392104;28;20042;-86
2023/06/26 16:30:56;;;;;;;7.03;1.87;;;;;;;-147.65;100.00;57646.63;10371513;28;20049;-86
2023/06/26 16:35:56;;;;;;;5.10;1.80;;;;;;;-147.65;100.00;57646.63;10395917;28;20045;-84
2023/06/26 16:40:57;;;;;;;5.23;2.40;;;;;;;-147.65;100.00;57646.63;10389168;28;20083;-91
2023/06/26 16:45:58;;;;;;;4.70;1.60;;;;;;;-147.65;100.00;57646.63;10374271;28;20448;-94
2023/06/26 16:50:58;;;;;;;3.70;1.63;;;;;;;-147.65;100.00;57646.63;10362886;28;20413;-86
2023/06/26 16:55:59;;;;;;;2.70;1.00;;;;;;;-147.65;100.00;57646.63;10385567;28;20188;-88
2023/06/26 17:00:59;;;;;;;5.30;2.08;;;;;;;-147.65;100.00;57646.63;10391699;28;20034;-83
2023/06/26 17:06:00;;;;;;;3.38;1.60;;;;;;;-147.65;100.00;57646.63;10360092;28;20042;-83
2023/06/26 17:11:00;;;;;;;3.20;1.55;;;;;;;-147.65;100.00;57646.63;10357114;28;20451;-86
2023/06/26 17:16:01;;;;;;;2.30;1.23;;;;;;;-147.65;100.00;57646.63;10378621;28;20234;-91
2023/06/26 17:21:03;;;;;;;4.60;1.70;;;;;;;-147.65;100.00;57646.63;10377266;28;20030;-92
2023/06/26 17:26:03;;;;;;;2.30;1.10;;;;;;;-147.65;100.00;57646.63;10366409;28;20046;-92
2023/06/26 17:31:04;;;;;;;4.88;1.35;;;;;;;-147.65;100.00;57646.63;10398468;28;20184;-93
2023/06/26 17:36:04;;;;;;;3.15;1.30;;;;;;;-147.65;100.00;57646.63;10342789;28;20125;-86
2023/06/26 17:41:05;;;;;;;7.28;2.08;;;;;;;-147.65;100.00;57646.63;10389539;28;20358;-90
2023/06/26 17:46:06;;;;;;;3.70;2.35;;;;;;;-147.65;100.00;57646.63;10389513;28;20037;-92
2023/06/26 17:51:06;;;;;;;5.97;1.25;;;;;;;-147.65;100.00;57646.63;10400322;28;20038;-85
2023/06/26 17:56:07;;;;;;;5.03;1.27;;;;;;;-147.65;100.00;57646.63;10361263;28;20065;-84
2023/06/26 18:01:07;;;;;;;4.05;1.50;;;;;;;-147.65;100.00;57646.63;10397142;28;20049;-84
2023/06/26 18:06:08;;;;;;;4.40;1.60;;;;;;;-147.65;100.00;57646.63;10444291;28;20125;-85
2023/06/26 18:11:08;;;;;;;2.78;1.20;;;;;;;-147.65;100.00;57646.63;10414052;28;20426;-86
2023/06/26 18:16:10;;;;;;;4.73;1.90;;;;;;;-147.65;100.00;57646.63;10436261;28;20068;-89
2023/06/26 18:21:10;;;;;;;5.70;1.52;;;;;;;-147.65;100.00;57646.63;10412856;28;20301;-86
2023/06/26 18:26:11;;;;;;;4.10;1.23;;;;;;;-147.65;100.00;57646.63;10452901;28;20473;-89
2023/06/26 18:31:11;;;;;;;3.55;1.10;;;;;;;-147.65;100.00;57646.63;10413141;28;20132;-89
2023/06/26 18:36:14;;;;;;;3.70;1.60;;;;;;;-147.65;100.00;57646.63;10433383;28;20052;-87
2023/06/26 18:41:15;;;;;;;2.53;1.10;;;;;;;-147.65;100.00;57646.63;10391661;28;20041;-85
2023/06/26 18:46:16;;;;;;;6.28;1.67;;;;;;;-147.65;100.00;57646.63;10388828;28;20396;-85
2023/06/26 18:51:16;;;;;;;7.43;1.95;;;;;;;-147.65;100.00;57646.63;10395199;28;20045;-82
2023/06/26 18:56:17;;;;;;;5.07;1.77;;;;;;;-147.65;100.00;57646.63;10405505;28;20041;-84
2023/06/26 19:01:17;;;;;;;3.35;1.10;;;;;;;-147.65;100.00;57646.63;10429096;28;20378;-84
2023/06/26 19:06:18;;;;;;;1.88;0.93;;;;;;;-147.65;100.00;57646.63;10393347;28;20038;-84
2023/06/26 19:11:19;;;;;;;3.38;1.02;;;;;;;-147.65;100.00;57646.63;10396254;28;20033;-85
2023/06/26 19:16:19;;;;;;;4.32;1.35;;;;;;;-147.65;100.00;57646.63;10399790;28;20041;-85
2023/06/26 19:21:20;;;;;;;2.63;1.40;;;;;;;-147.65;100.00;57646.63;10395809;28;20113;-84
2023/06/26 19:26:21;;;;;;;4.35;1.02;;;;;;;-147.65;100.00;57646.63;10362965;28;20049;-85
2023/06/26 19:31:22;;;;;;;2.22;1.10;;;;;;;-147.65;100.00;57646.63;10365375;28;20422;-84
2023/06/26 19:36:24;;;;;;;4.65;1.25;;;;;;;-147.65;100.00;57646.63;10397250;28;20042;-84
2023/06/26 19:41:25;;;;;;;2.25;1.15;;;;;;;-147.65;100.00;57646.63;10364903;28;20173;-84
2023/06/26 19:46:25;;;;;;;4.75;1.15;;;;;;;-147.65;100.00;57646.63;10422222;28;20106;-85
2023/06/26 19:51:26;;;;;;;6.13;1.48;;;;;;;-147.65;100.00;57646.63;10410108;28;20092;-87
2023/06/26 19:56:27;;;;;;;4.05;1.35;;;;;;;-147.65;100.00;57646.63;10390942;28;20052;-85
2023/06/26 20:01:27;;;;;;;2.25;1.15;;;;;;;-147.65;100.00;57646.63;10405733;28;20393;-84
2023/06/26 20:06:28;;;;;;;4.15;1.50;;;;;;;-147.65;100.00;57646.63;10409515;28;20485;-85
2023/06/26 20:11:28;;;;;;;3.28;0.95;;;;;;;-147.65;100.00;57646.63;10422476;28;20123;-85
2023/06/26 20:16:29;;;;;;;3.58;1.48;;;;;;;-147.65;100.00;57646.63;10371876;28;20037;-84
2023/06/26 20:21:29;;;;;;;3.15;1.08;;;;;;;-147.65;100.00;57646.63;10370513;28;20059;-84
2023/06/26 20:26:30;;;;;;;6.55;1.63;;;;;;;-147.65;100.00;57646.63;10395240;28;20046;-84
2023/06/26 20:31:31;;;;;;;4.68;2.42;;;;;;;-147.65;100.00;57646.63;10400454;28;20046;-83
2023/06/26 20:36:32;;;;;;;4.57;1.50;;;;;;;-147.65;100.00;57646.63;10408791;28;20033;-82
2023/06/26 20:41:32;;;;;;;9.90;1.65;;;;;;;-147.65;100.00;57646.63;10405221;28;20144;-85
2023/06/26 20:46:36;;;;;;;;;;;;;;;-147.65;100.00;57646.63;10391851;28;20072;-84
2023/06/26 20:51:37;;;;;;;8.13;2.50;;;;;;;-147.65;100.00;57646.63;10422452;28;19928;-84
2023/06/26 20:56:37;;;;;;;5.68;1.85;;;;;;;-147.65;100.00;57646.63;10374643;28;20049;-83
2023/06/26 21:01:38;;;;;;;2.72;1.48;;;;;;;-147.65;100.00;57646.63;10402218;28;20037;-83
2023/06/26 21:06:39;;;;;;;7.13;1.77;;;;;;;-147.65;100.00;57646.63;10408564;28;20029;-83
2023/06/26 21:11:39;;;;;;;9.23;2.15;;;;;;;-147.65;100.00;57646.63;10408979;28;20033;-82
2023/06/26 21:16:40;;;;;;;5.50;1.92;;;;;;;-147.65;100.00;57646.63;10397034;28;20436;-82
2023/06/26 21:21:40;;;;;;;1.98;1.27;;;;;;;-147.65;100.00;57646.63;10400916;28;20117;-83
2023/06/26 21:26:41;;;;;;;4.10;2.10;;;;;;;-147.65;100.00;57646.63;10364962;28;20042;-83
2023/06/26 21:31:41;;;;;;;4.03;1.25;;;;;;;-147.65;100.00;57646.63;10417384;28;20499;-83
2023/06/26 21:36:42;;;;;;;4.93;2.30;;;;;;;-147.65;100.00;57646.63;10420822;28;20128;-83
2023/06/26 21:41:44;;;;;;;4.57;1.90;;;;;;;-147.65;100.00;57646.63;10399022;28;20187;-81
2023/06/26 21:46:45;;;;;;;4.65;2.03;;;;;;;-147.65;100.00;57646.63;10386006;28;20058;-82
2023/06/26 21:51:45;;;;;;;15.02;2.78;;;;;;;-147.65;100.00;57646.63;10396860;28;20056;-82
2023/06/26 21:56:46;;;;;;;7.10;2.22;;;;;;;-147.65;100.00;57646.63;10407491;28;20053;-83
2023/06/26 22:01:46;;;;;;;6.05;2.53;;;;;;;-147.65;100.00;57646.63;10388329;28;20496;-83
2023/06/26 22:06:47;;;;;;;6.22;4.13;;;;;;;-147.65;100.00;57646.63;10374775;28;20126;-82
2023/06/26 22:11:47;;;;;;;7.20;2.20;;;;;;;-147.65;100.00;57646.63;10370158;28;20466;-83
2023/06/26 22:16:48;;;;;;;5.03;2.88;;;;;;;-147.65;100.00;57646.63;10398990;28;20112;-83
2023/06/26 22:21:48;;;;;;;4.15;1.90;;;;;;;-147.65;100.00;57646.63;10409261;28;20510;-83
2023/06/26 22:26:49;;;;;;;6.65;2.10;;;;;;;-147.65;100.00;57646.63;10364279;28;20034;-83